createdAt,value
2023-02-02T00:01:13.423Z,100190.63
2023-02-02T00:04:04.332Z,100197.66
2023-02-02T00:06:53.431Z,100200.31
2023-02-02T00:09:39.869Z,100181.88
2023-02-02T00:12:29.534Z,100181.84
2023-02-02T00:15:16.101Z,100156.34
2023-02-02T00:18:03.140Z,100177.41
2023-02-02T00:20:53.814Z,100181.78
2023-02-02T00:23:42.677Z,100166.09
2023-02-02T00:26:32.242Z,100171.31
2023-02-02T00:29:24.523Z,100161.75
2023-02-02T00:32:14.864Z,100160.94
2023-02-02T00:35:08.863Z,100158.22
2023-02-02T00:37:56.839Z,100160.06
2023-02-02T00:40:45.726Z,100149.47
2023-02-02T00:43:35.273Z,100148.50
2023-02-02T00:46:46.213Z,100161.56
2023-02-02T00:49:35.769Z,100165.25
2023-02-02T00:52:50.370Z,100159.09
2023-02-02T00:55:47.977Z,100156.50
2023-02-02T00:59:00.236Z,100158.34
2023-02-02T01:01:47.104Z,100169.75
2023-02-02T01:04:37.972Z,100179.34
2023-02-02T01:07:26.988Z,100185.47
2023-02-02T01:10:26.435Z,100181.25
2023-02-02T01:13:46.045Z,100168.34
2023-02-02T01:16:43.018Z,100164.03
2023-02-02T01:19:32.557Z,100173.63
2023-02-02T01:22:24.906Z,100170.16
2023-02-02T01:25:17.536Z,100161.50
2023-02-02T01:28:10.108Z,100158.03
2023-02-02T01:31:05.362Z,100164.91
2023-02-02T01:33:53.990Z,100164.06
2023-02-02T01:36:43.947Z,100159.75
2023-02-02T01:39:34.367Z,100161.50
2023-02-02T01:42:51.395Z,100171.88
2023-02-02T01:46:07.035Z,100176.25
2023-02-02T01:49:23.752Z,100171.84
2023-02-02T01:52:15.862Z,100178.03
2023-02-02T01:55:11.697Z,100192.84
2023-02-02T01:58:14.807Z,100176.28
2023-02-02T02:01:04.510Z,100186.66
2023-02-02T02:03:55.796Z,100191.03
2023-02-02T02:06:56.794Z,100186.56
2023-02-02T02:10:09.744Z,100203.97
2023-02-02T02:13:22.279Z,100221.41
2023-02-02T02:16:19.438Z,100221.34
2023-02-02T02:24:11.398Z,100230.94
2023-02-02T02:27:45.689Z,100236.19
2023-02-02T02:31:15.576Z,100250.00
2023-02-02T02:35:03.762Z,100267.47
2023-02-02T02:38:02.278Z,100252.69
2023-02-02T02:40:59.162Z,100262.19
2023-02-02T02:43:53.984Z,100257.84
2023-02-02T02:46:41.103Z,100253.38
2023-02-02T02:49:30.278Z,100266.44
2023-02-02T02:52:20.777Z,100268.13
2023-02-02T02:55:38.157Z,100274.28
2023-02-02T02:58:35.609Z,100275.06
2023-02-02T03:01:30.772Z,100295.19
2023-02-02T03:04:24.660Z,100290.81
2023-02-02T03:07:28.818Z,100309.97
2023-02-02T03:10:22.931Z,100311.78
2023-02-02T03:13:12.113Z,100303.03
2023-02-02T03:15:59.558Z,100322.22
2023-02-02T03:19:11.399Z,100337.09
2023-02-02T03:21:58.233Z,100338.81
2023-02-02T03:24:46.610Z,100344.94
2023-02-02T03:27:33.747Z,100344.88
2023-02-02T03:30:21.253Z,100346.72
2023-02-02T03:33:08.417Z,100361.44
2023-02-02T03:36:20.474Z,100373.69
2023-02-02T03:39:07.102Z,100371.91
2023-02-02T03:42:23.318Z,100372.81
2023-02-02T03:45:11.580Z,100385.88
2023-02-02T03:47:58.397Z,100378.94
2023-02-02T03:50:45.212Z,100384.16
2023-02-02T03:53:32.008Z,100384.09
2023-02-02T03:56:20.478Z,100392.78
2023-02-02T03:59:11.673Z,100396.31
2023-02-02T04:01:58.461Z,100397.25
2023-02-02T04:04:45.204Z,100407.59
2023-02-02T04:07:31.956Z,100407.69
2023-02-02T04:10:19.609Z,100429.50
2023-02-02T04:13:06.371Z,100434.91
2023-02-02T04:16:00.262Z,100327.44
2023-02-02T04:18:47.256Z,100439.38
2023-02-02T04:21:34.041Z,100453.34
2023-02-02T04:24:20.934Z,100452.53
2023-02-02T04:27:34.211Z,100462.16
2023-02-02T04:30:21.386Z,100469.16
2023-02-02T04:33:09.683Z,100467.44
2023-02-02T04:35:57.047Z,100478.75
2023-02-02T04:38:43.782Z,100490.09
2023-02-02T04:41:30.622Z,100491.91
2023-02-02T04:44:18.045Z,100500.69
2023-02-02T04:47:04.530Z,100498.06
2023-02-02T04:50:18.056Z,100506.03
2023-02-02T04:53:04.551Z,100510.44
2023-02-02T04:55:51.452Z,100518.34
2023-02-02T04:58:38.848Z,100521.84
2023-02-02T05:01:31.018Z,100526.19
2023-02-02T05:04:20.474Z,100534.06
2023-02-02T05:07:08.233Z,100534.91
2023-02-02T05:10:20.358Z,100540.97
2023-02-02T05:13:07.003Z,100541.84
2023-02-02T05:15:55.245Z,100548.00
2023-02-02T05:18:41.991Z,100557.69
2023-02-02T05:21:28.887Z,100560.25
2023-02-02T05:24:17.086Z,100574.13
2023-02-02T05:27:55.067Z,100575.03
2023-02-02T05:30:42.224Z,100574.22
2023-02-02T05:33:31.145Z,100582.06
2023-02-02T05:36:18.545Z,100575.09
2023-02-02T05:39:08.070Z,100591.78
2023-02-02T05:42:21.706Z,100589.19
2023-02-02T05:45:33.723Z,100597.97
2023-02-02T05:48:23.036Z,100609.34
2023-02-02T05:51:35.801Z,100605.88
2023-02-02T05:54:48.409Z,100616.34
2023-02-02T05:57:36.481Z,100621.59
2023-02-02T06:00:24.419Z,100623.34
2023-02-02T06:03:13.265Z,100623.41
2023-02-02T06:06:00.791Z,100635.56
2023-02-02T06:08:50.157Z,100643.41
2023-02-02T06:11:36.651Z,100653.91
2023-02-02T06:14:27.403Z,100661.75
2023-02-02T06:17:39.471Z,100673.13
2023-02-02T06:20:26.145Z,100672.28
2023-02-02T06:23:12.670Z,100686.19
2023-02-02T06:25:59.759Z,100683.56
2023-02-02T06:28:50.796Z,100702.78
2023-02-02T06:31:42.341Z,100698.38
2023-02-02T06:34:33.887Z,100708.06
2023-02-02T06:37:20.438Z,100712.44
2023-02-02T06:40:32.585Z,100722.06
2023-02-02T06:43:19.736Z,100721.22
2023-02-02T06:46:08.950Z,100722.97
2023-02-02T06:48:59.029Z,100724.69
2023-02-02T06:51:48.020Z,100725.56
2023-02-02T06:54:42.329Z,100731.69
2023-02-02T06:57:36.408Z,100743.91
2023-02-02T07:00:23.147Z,100746.47
2023-02-02T07:03:09.679Z,100749.13
2023-02-02T07:06:00.340Z,100749.97
2023-02-02T07:09:03.069Z,100755.22
2023-02-02T07:12:03.908Z,100764.81
2023-02-02T07:14:50.933Z,100763.09
2023-02-02T07:17:39.820Z,100769.19
2023-02-02T07:20:53.793Z,100779.66
2023-02-02T07:24:13.665Z,100794.50
2023-02-02T07:27:25.475Z,100795.38
2023-02-02T07:30:40.410Z,100807.56
2023-02-02T07:33:54.980Z,100816.31
2023-02-02T07:37:06.493Z,100822.41
2023-02-02T07:40:02.207Z,100815.34
2023-02-02T07:42:52.306Z,100829.34
2023-02-02T07:45:39.964Z,100831.09
2023-02-02T07:48:27.031Z,100834.56
2023-02-02T07:51:22.463Z,100827.56
2023-02-02T07:54:13.495Z,100825.78
2023-02-02T07:57:28.298Z,100827.56
2023-02-02T08:00:18.692Z,100832.75
2023-02-02T08:03:08.161Z,100839.78
2023-02-02T08:05:57.899Z,100838.88
2023-02-02T08:08:45.012Z,100852.84
2023-02-02T08:12:09.550Z,100861.56
2023-02-02T08:14:59.955Z,100867.72
2023-02-02T08:22:13.535Z,100884.41
2023-02-02T08:25:00.751Z,100891.41
2023-02-02T08:27:47.501Z,100887.00
2023-02-02T08:31:08.645Z,100900.00
2023-02-02T08:34:21.459Z,100909.56
2023-02-02T08:37:13.908Z,100910.41
2023-02-02T08:40:02.880Z,100923.53
2023-02-02T08:42:59.939Z,100922.66
2023-02-02T08:46:03.711Z,100924.41
2023-02-02T08:49:11.801Z,100933.16
2023-02-02T08:52:25.860Z,100926.16
2023-02-02T08:56:00.600Z,100810.22
2023-02-02T08:58:50.540Z,100939.25
2023-02-02T09:02:02.421Z,100940.97
2023-02-02T09:04:52.522Z,100936.59
2023-02-02T09:08:04.609Z,100933.91
2023-02-02T09:10:51.271Z,100945.28
2023-02-02T09:14:29.253Z,100950.50
2023-02-02T09:17:16.956Z,100943.47
2023-02-02T09:20:40.210Z,100948.59
2023-02-02T09:23:26.950Z,100936.34
2023-02-02T09:26:38.872Z,100956.47
2023-02-02T09:29:51.919Z,100954.56
2023-02-02T09:32:41.193Z,100959.75
2023-02-02T09:35:28.290Z,100956.28
2023-02-02T09:38:18.171Z,100961.56
2023-02-02T09:41:54.455Z,100969.56
2023-02-02T09:45:53.160Z,100973.13
2023-02-02T09:49:07.684Z,100984.53
2023-02-02T09:52:08.397Z,101023.03
2023-02-02T09:55:11.533Z,101023.28
2023-02-02T09:58:14.078Z,101026.06
2023-02-02T10:01:07.900Z,101025.22
2023-02-02T10:04:23.693Z,101029.59
2023-02-02T10:07:52.737Z,101040.09
2023-02-02T10:11:25.951Z,101031.34
2023-02-02T10:14:22.336Z,101026.09
2023-02-02T10:17:35.375Z,101023.47
2023-02-02T10:21:20.717Z,101019.09
2023-02-02T10:24:20.414Z,101023.41
2023-02-02T10:27:25.902Z,101013.72
2023-02-02T10:30:28.570Z,101016.28
2023-02-02T10:33:31.825Z,101011.78
2023-02-02T10:40:34.769Z,101015.09
2023-02-02T10:43:55.372Z,101017.69
2023-02-02T10:46:53.127Z,101020.19
2023-02-02T10:49:50.163Z,101023.53
2023-02-02T10:52:45.176Z,101034.34
2023-02-02T10:55:41.438Z,101029.75
2023-02-02T10:58:37.404Z,101032.34
2023-02-02T11:01:27.773Z,101038.31
2023-02-02T11:04:49.102Z,101050.06
2023-02-02T11:08:05.343Z,101055.22
2023-02-02T11:11:16.658Z,101069.16
2023-02-02T11:14:24.721Z,101062.16
2023-02-02T11:17:25.219Z,101084.19
2023-02-02T11:20:27.584Z,101093.41
2023-02-02T11:23:38.339Z,101103.22
2023-02-02T11:26:28.381Z,101109.31
2023-02-02T11:29:20.013Z,101116.28
2023-02-02T11:32:36.198Z,101110.94
2023-02-02T11:35:32.146Z,101084.78
2023-02-02T11:38:21.432Z,101123.13
2023-02-02T11:41:23.502Z,101117.06
2023-02-02T11:44:27.013Z,101125.94
2023-02-02T11:47:21.419Z,101145.94
2023-02-02T11:50:23.153Z,101155.38
2023-02-02T11:53:25.215Z,101141.22
2023-02-02T11:56:30.989Z,101145.66
2023-02-02T11:59:43.668Z,101141.22
2023-02-02T12:02:58.471Z,101162.28
2023-02-02T12:06:08.386Z,101168.66
2023-02-02T12:09:30.584Z,101161.94
2023-02-02T12:12:43.225Z,101170.81
2023-02-02T12:15:55.692Z,101175.25
2023-02-02T12:18:57.517Z,101182.31
2023-02-02T12:26:33.288Z,101190.28
2023-02-02T12:29:39.603Z,101200.81
2023-02-02T12:37:07.932Z,101206.06
2023-02-02T12:40:18.594Z,101204.34
2023-02-02T12:43:40.703Z,101201.69
2023-02-02T12:47:16.434Z,101203.44
2023-02-02T12:50:44.896Z,101205.97
2023-02-02T12:54:33.625Z,101213.78
2023-02-02T12:57:48.628Z,101227.78
2023-02-02T13:01:49.985Z,101233.00
2023-02-02T13:05:04.192Z,101238.28
2023-02-02T13:07:58.406Z,101236.56
2023-02-02T13:11:31.167Z,101246.22
2023-02-02T13:14:32.510Z,101251.47
2023-02-02T13:18:10.695Z,101263.75
2023-02-02T13:21:17.765Z,101272.50
2023-02-02T13:24:18.921Z,101274.28
2023-02-02T13:27:33.975Z,101284.78
2023-02-02T13:30:58.005Z,101292.72
2023-02-02T13:33:57.402Z,101290.09
2023-02-02T13:36:49.501Z,101306.72
2023-02-02T13:40:10.579Z,101309.31
2023-02-02T13:43:26.332Z,101313.72
2023-02-02T13:46:52.668Z,101323.28
2023-02-02T13:49:54.317Z,101325.94
2023-02-02T13:53:13.539Z,101350.44
2023-02-02T13:56:29.274Z,101356.59
2023-02-02T13:59:51.985Z,101364.47
2023-02-02T14:03:20.754Z,101367.09
2023-02-02T14:06:19.504Z,101368.78
2023-02-02T14:09:36.224Z,101383.66
2023-02-02T14:12:50.272Z,101389.75
2023-02-02T14:16:09.046Z,101395.84
2023-02-02T14:19:46.402Z,101401.97
2023-02-02T14:22:54.818Z,101406.34
2023-02-02T14:26:07.657Z,101410.69
2023-02-02T14:28:54.150Z,101418.59
2023-02-02T14:32:47.369Z,101416.81
2023-02-02T14:36:02.175Z,101433.44
2023-02-02T14:39:30.699Z,101449.13
2023-02-02T14:43:06.456Z,101462.28
2023-02-02T14:46:56.335Z,101470.09
2023-02-02T14:49:47.920Z,101477.81
2023-02-02T14:53:40.583Z,101488.25
2023-02-02T14:57:07.706Z,101489.91
2023-02-02T15:00:04.045Z,101499.44
2023-02-02T15:02:56.560Z,101508.91
2023-02-02T15:05:46.526Z,101515.88
2023-02-02T15:09:17.607Z,101519.44
2023-02-02T15:12:53.313Z,101529.97
2023-02-02T15:16:24.644Z,101534.03
2023-02-02T15:19:33.213Z,101542.63
2023-02-02T15:22:31.553Z,101548.59
2023-02-02T15:25:26.881Z,101559.00
2023-02-02T15:29:02.750Z,101549.13
2023-02-02T15:35:38.525Z,101570.72
2023-02-02T15:38:41.529Z,101572.25
2023-02-02T15:42:21.140Z,101565.94
2023-02-02T15:45:34.429Z,101576.28
2023-02-02T15:48:45.894Z,101582.16
2023-02-02T15:51:33.090Z,101597.47
2023-02-02T15:54:40.917Z,101595.34
2023-02-02T15:57:35.343Z,101606.66
2023-02-02T16:00:56.467Z,101610.75
2023-02-02T16:04:18.055Z,101623.50
2023-02-02T16:07:06.600Z,101554.59
2023-02-02T16:10:39.121Z,101637.81
2023-02-02T16:14:06.617Z,101637.41
2023-02-02T16:16:56.808Z,101638.13
2023-02-02T16:19:56.946Z,101651.00
2023-02-02T16:26:53.100Z,101670.56
2023-02-02T16:29:58.920Z,101672.22
2023-02-02T16:33:32.023Z,101677.09
2023-02-02T16:36:33.250Z,101677.69
2023-02-02T16:39:49.680Z,101693.16
2023-02-02T16:42:40.573Z,101701.63
2023-02-02T16:45:44.800Z,101706.63
2023-02-02T16:48:47.639Z,101706.50
2023-02-02T16:52:23.957Z,101713.31
2023-02-02T16:55:11.281Z,101717.41
2023-02-02T16:58:02.123Z,101725.97
2023-02-02T17:05:24.559Z,101733.56
2023-02-02T17:08:17.565Z,101739.63
2023-02-02T17:11:28.757Z,101752.53
2023-02-02T17:14:34.237Z,101751.75
2023-02-02T17:18:07.721Z,101753.31
2023-02-02T17:20:59.000Z,101753.22
2023-02-02T17:23:57.042Z,101750.44
2023-02-02T17:27:17.409Z,101759.97
2023-02-02T17:30:22.337Z,101758.16
2023-02-02T17:33:14.988Z,101756.22
2023-02-02T17:36:05.080Z,101767.50
2023-02-02T17:38:56.989Z,101778.63
2023-02-02T17:42:04.076Z,101792.38
2023-02-02T17:45:23.255Z,101791.34
2023-02-02T17:48:18.961Z,101793.06
2023-02-02T17:51:15.877Z,101800.19
2023-02-02T17:54:26.152Z,101804.53
2023-02-02T17:57:12.470Z,101795.84
2023-02-02T18:00:00.454Z,101798.19
2023-02-02T18:02:55.268Z,101792.75
2023-02-02T18:06:06.746Z,101803.88
2023-02-02T18:09:43.513Z,101796.72
2023-02-02T18:13:04.715Z,101800.00
2023-02-02T18:16:00.130Z,101805.09
2023-02-02T18:18:47.006Z,101811.97
2023-02-02T18:21:36.070Z,101812.75
2023-02-02T18:24:26.103Z,101808.44
2023-02-02T18:27:40.493Z,101802.34
2023-02-02T18:30:28.412Z,101808.25
2023-02-02T18:33:26.362Z,101806.44
2023-02-02T18:36:21.640Z,101809.03
2023-02-02T18:39:18.169Z,101802.09
2023-02-02T18:42:04.763Z,101803.78
2023-02-02T18:44:53.762Z,101802.00
2023-02-02T18:47:42.048Z,101802.00
2023-02-02T18:50:28.938Z,101805.75
2023-02-02T18:53:49.767Z,101798.56
2023-02-02T18:56:37.229Z,101780.03
2023-02-02T18:59:33.625Z,101801.81
2023-02-02T19:02:22.381Z,101810.44
2023-02-02T19:05:28.128Z,101803.47
2023-02-02T19:08:31.971Z,101806.19
2023-02-02T19:12:10.718Z,101808.78
2023-02-02T19:15:00.525Z,101808.72
2023-02-02T19:18:06.485Z,101813.88
2023-02-02T19:20:56.809Z,101814.59
2023-02-02T19:23:47.737Z,101823.97
2023-02-02T19:26:47.538Z,101823.75
2023-02-02T19:30:08.727Z,101823.56
2023-02-02T19:39:03.145Z,101832.34
2023-02-02T19:41:52.218Z,101832.19
2023-02-02T19:44:44.397Z,101827.72
2023-02-02T19:47:34.926Z,101824.19
2023-02-02T19:50:49.775Z,101824.97
2023-02-02T19:53:40.272Z,101832.06
2023-02-02T19:56:38.556Z,101820.81
2023-02-02T20:03:11.871Z,101824.69
2023-02-02T20:06:10.008Z,101823.59
2023-02-02T20:09:00.350Z,101830.72
2023-02-02T20:12:16.154Z,101837.03
2023-02-02T20:15:43.150Z,101824.06
2023-02-02T20:18:55.418Z,101836.13
2023-02-02T20:22:40.270Z,101826.81
2023-02-02T20:25:32.744Z,101826.78
2023-02-02T20:29:16.449Z,101828.53
2023-02-02T20:32:47.029Z,101829.31
2023-02-02T20:36:23.336Z,101827.41
2023-02-02T20:39:30.735Z,101840.81
2023-02-02T20:42:27.487Z,101801.19
2023-02-02T20:45:17.324Z,101832.84
2023-02-02T20:48:07.453Z,101836.34
2023-02-02T20:50:53.913Z,101829.63
2023-02-02T20:53:43.606Z,101828.84
2023-02-02T20:56:31.179Z,101829.78
2023-02-02T20:59:45.239Z,101829.16
2023-02-02T21:02:34.246Z,101824.19
2023-02-02T21:05:26.254Z,101821.25
2023-02-02T21:08:16.616Z,101817.47
2023-02-02T21:11:06.668Z,101809.34
2023-02-02T21:13:56.395Z,101809.19
2023-02-02T21:16:46.723Z,101806.28
2023-02-02T21:19:33.444Z,101803.53
2023-02-02T21:22:20.249Z,101797.34
2023-02-02T21:25:10.211Z,101794.84
2023-02-02T21:28:01.203Z,101798.28
2023-02-02T21:30:49.142Z,101798.13
2023-02-02T21:33:40.990Z,101794.59
2023-02-02T21:36:57.495Z,101796.91
2023-02-02T21:40:16.930Z,101800.41
2023-02-02T21:43:22.660Z,101790.03
2023-02-02T21:46:19.353Z,101791.41
2023-02-02T21:49:44.434Z,101793.97
2023-02-02T21:53:09.004Z,101790.78
2023-02-02T21:56:00.374Z,101789.91
2023-02-02T21:58:48.614Z,101784.75
2023-02-02T22:01:39.731Z,101776.19
2023-02-02T22:04:36.341Z,101727.78
2023-02-02T22:07:30.170Z,101773.16
2023-02-02T22:11:16.167Z,101760.09
2023-02-02T22:14:22.425Z,101758.66
2023-02-02T22:17:24.585Z,101750.91
2023-02-02T22:20:30.178Z,101761.28
2023-02-02T22:23:22.123Z,101755.28
2023-02-02T22:26:40.356Z,101749.31
2023-02-02T22:29:39.146Z,101752.88
2023-02-02T22:32:27.545Z,101747.69
2023-02-02T22:35:14.818Z,101747.84
2023-02-02T22:38:05.044Z,101739.25
2023-02-02T22:40:55.673Z,101749.91
2023-02-02T22:43:44.627Z,101756.63
2023-02-02T22:46:36.490Z,101748.00
2023-02-02T22:49:27.824Z,101754.16
2023-02-02T22:52:23.682Z,101757.78
2023-02-02T22:55:11.440Z,101758.59
2023-02-02T22:58:02.770Z,101732.16
2023-02-02T23:00:50.351Z,101761.50
2023-02-02T23:03:37.620Z,101755.56
2023-02-02T23:06:26.733Z,101750.34
2023-02-02T23:09:13.490Z,101753.09
2023-02-02T23:12:02.390Z,101754.13
2023-02-02T23:15:26.515Z,101756.97
2023-02-02T23:18:33.670Z,101751.66
2023-02-02T23:21:21.330Z,101737.00
2023-02-02T23:24:08.853Z,101745.72
2023-02-02T23:26:59.577Z,101744.72
2023-02-02T23:29:46.581Z,101734.28
2023-02-02T23:32:34.893Z,101732.69
2023-02-02T23:35:30.448Z,101723.44
2023-02-02T23:38:19.408Z,101723.44
2023-02-02T23:41:06.278Z,101720.19
2023-02-02T23:43:57.109Z,101709.63
2023-02-02T23:46:46.159Z,101706.38
2023-02-02T23:49:35.114Z,101674.72
2023-02-02T23:52:24.237Z,101700.66
2023-02-02T23:55:12.324Z,101691.19
2023-02-02T23:58:25.457Z,101683.28
